createdAt,value
2023-11-14T00:01:24.581Z,2.80
2023-11-14T00:04:14.212Z,3.30
2023-11-14T00:07:03.825Z,3.57
2023-11-14T00:09:53.524Z,3.07
2023-11-14T00:12:41.800Z,3.20
2023-11-14T00:15:30.087Z,2.77
2023-11-14T00:18:18.323Z,2.83
2023-11-14T00:21:06.582Z,2.73
2023-11-14T00:23:55.480Z,3.23
2023-11-14T00:26:45.149Z,3.33
2023-11-14T00:29:33.444Z,2.97
2023-11-14T00:32:21.561Z,2.70
2023-11-14T00:35:10.173Z,2.77
2023-11-14T00:37:58.276Z,3.20
2023-11-14T00:40:46.649Z,2.63
2023-11-14T00:43:36.102Z,2.70
2023-11-14T00:46:24.272Z,3.30
2023-11-14T00:49:12.394Z,3.50
2023-11-14T00:52:00.470Z,2.93
2023-11-14T00:54:48.577Z,3.60
2023-11-14T00:57:36.711Z,2.43
2023-11-14T01:00:27.689Z,3.07
2023-11-14T01:03:16.240Z,3.37
2023-11-14T01:06:06.024Z,3.27
2023-11-14T01:08:54.561Z,2.90
2023-11-14T01:11:42.869Z,2.77
2023-11-14T01:14:31.207Z,3.00
2023-11-14T01:17:22.517Z,3.80
2023-11-14T01:20:14.212Z,3.67
2023-11-14T01:23:02.564Z,3.30
2023-11-14T01:25:50.875Z,3.00
2023-11-14T01:28:39.393Z,2.70
2023-11-14T01:31:27.508Z,3.73
2023-11-14T01:34:16.948Z,3.00
2023-11-14T01:37:05.829Z,3.27
2023-11-14T01:39:53.860Z,3.27
2023-11-14T01:42:42.046Z,3.27
2023-11-14T01:45:30.144Z,3.70
2023-11-14T01:48:18.319Z,3.10
2023-11-14T01:51:08.601Z,3.00
2023-11-14T01:53:57.274Z,4.07
2023-11-14T01:56:46.315Z,3.67
2023-11-14T01:59:34.631Z,2.90
2023-11-14T02:02:22.986Z,2.90
2023-11-14T02:05:11.762Z,3.50
2023-11-14T02:08:01.648Z,4.40
2023-11-14T02:10:50.268Z,2.80
2023-11-14T02:13:38.839Z,3.20
2023-11-14T02:16:28.252Z,3.40
2023-11-14T02:19:16.570Z,3.40
2023-11-14T02:22:04.790Z,3.60
2023-11-14T02:24:56.624Z,3.33
2023-11-14T02:27:45.668Z,3.30
2023-11-14T02:30:34.502Z,3.50
2023-11-14T02:33:22.567Z,3.13
2023-11-14T02:36:11.156Z,3.67
2023-11-14T02:38:59.333Z,3.63
2023-11-14T02:41:48.795Z,3.73
2023-11-14T02:44:36.883Z,3.50
2023-11-14T02:47:25.755Z,3.07
2023-11-14T02:50:27.232Z,3.53
2023-11-14T02:53:15.298Z,3.17
2023-11-14T02:56:03.548Z,3.43
2023-11-14T02:58:53.000Z,3.10
2023-11-14T03:01:41.121Z,2.87
2023-11-14T03:04:29.137Z,3.40
2023-11-14T03:07:17.578Z,2.80
2023-11-14T03:10:06.219Z,3.57
2023-11-14T03:12:55.148Z,3.40
2023-11-14T03:15:44.757Z,3.97
2023-11-14T03:18:32.887Z,3.37
2023-11-14T03:21:21.010Z,3.03
2023-11-14T03:24:10.161Z,3.40
2023-11-14T03:26:58.293Z,3.77
2023-11-14T03:29:46.905Z,4.20
2023-11-14T03:32:37.251Z,3.60
2023-11-14T03:35:25.451Z,3.20
2023-11-14T03:38:13.598Z,3.80
2023-11-14T03:41:01.778Z,3.70
2023-11-14T03:43:49.956Z,3.57
2023-11-14T03:46:38.195Z,3.20
2023-11-14T03:49:27.731Z,4.07
2023-11-14T03:52:16.147Z,4.43
2023-11-14T03:55:04.244Z,4.53
2023-11-14T03:57:53.591Z,4.17
2023-11-14T04:00:41.726Z,4.47
2023-11-14T04:03:29.773Z,3.97
2023-11-14T04:06:19.561Z,4.00
2023-11-14T04:09:07.794Z,3.27
2023-11-14T04:11:55.909Z,4.03
2023-11-14T04:14:44.280Z,3.77
2023-11-14T04:17:32.608Z,3.40
2023-11-14T04:20:20.846Z,3.43
2023-11-14T04:23:10.310Z,3.10
2023-11-14T04:25:58.473Z,2.97
2023-11-14T04:28:46.598Z,4.33
2023-11-14T04:31:34.786Z,3.43
2023-11-14T04:34:22.870Z,3.63
2023-11-14T04:37:11.387Z,3.40
2023-11-14T04:40:00.942Z,4.03
2023-11-14T04:42:49.110Z,3.93
2023-11-14T04:45:37.149Z,4.10
2023-11-14T04:48:25.773Z,3.80
2023-11-14T04:51:13.900Z,3.50
2023-11-14T04:54:01.961Z,3.20
2023-11-14T04:56:51.468Z,4.03
2023-11-14T04:59:39.690Z,3.77
2023-11-14T05:02:29.365Z,3.50
2023-11-14T05:05:17.743Z,3.17
2023-11-14T05:08:06.217Z,3.13
2023-11-14T05:10:54.367Z,3.23
2023-11-14T05:13:43.991Z,2.97
2023-11-14T05:16:32.165Z,4.17
2023-11-14T05:19:20.281Z,3.40
2023-11-14T05:22:08.429Z,3.33
2023-11-14T05:24:56.532Z,3.70
2023-11-14T05:27:44.639Z,4.03
2023-11-14T05:30:34.058Z,3.37
2023-11-14T05:33:22.423Z,2.90
2023-11-14T05:36:11.174Z,3.37
2023-11-14T05:38:59.942Z,3.47
2023-11-14T05:41:48.172Z,4.50
2023-11-14T05:44:36.853Z,3.70
2023-11-14T05:47:26.503Z,3.33
2023-11-14T05:50:15.203Z,3.43
2023-11-14T05:53:03.401Z,3.40
2023-11-14T05:55:51.550Z,3.87
2023-11-14T05:58:39.719Z,4.27
2023-11-14T06:01:28.098Z,3.93
2023-11-14T06:04:17.739Z,3.40
2023-11-14T06:07:05.983Z,3.53
2023-11-14T06:09:54.129Z,3.23
2023-11-14T06:12:42.895Z,3.83
2023-11-14T06:15:31.789Z,3.07
2023-11-14T06:18:20.569Z,3.80
2023-11-14T06:21:11.712Z,2.70
2023-11-14T06:23:59.783Z,2.97
2023-11-14T06:26:47.803Z,3.33
2023-11-14T06:29:35.921Z,3.77
2023-11-14T06:32:24.051Z,3.60
2023-11-14T06:35:12.279Z,3.93
2023-11-14T06:38:01.769Z,4.10
2023-11-14T06:40:49.860Z,3.30
2023-11-14T06:43:38.086Z,3.57
2023-11-14T06:46:26.190Z,3.20
2023-11-14T06:49:14.493Z,3.20
2023-11-14T06:52:02.585Z,2.93
2023-11-14T06:54:52.173Z,2.90
2023-11-14T06:57:41.760Z,3.27
2023-11-14T07:00:29.847Z,3.10
2023-11-14T07:03:17.947Z,3.57
2023-11-14T07:06:06.697Z,4.10
2023-11-14T07:08:55.238Z,3.07
2023-11-14T07:11:45.824Z,3.00
2023-11-14T07:14:33.953Z,2.60
2023-11-14T07:17:23.119Z,2.97
2023-11-14T07:20:13.349Z,2.93
2023-11-14T07:23:01.554Z,3.03
2023-11-14T07:25:49.907Z,3.30
2023-11-14T07:28:42.125Z,3.83
2023-11-14T07:31:30.264Z,3.20
2023-11-14T07:34:18.481Z,3.50
2023-11-14T07:37:06.614Z,3.53
2023-11-14T07:39:57.459Z,3.30
2023-11-14T07:42:45.801Z,2.87
2023-11-14T07:45:36.101Z,3.70
2023-11-14T07:48:24.684Z,3.53
2023-11-14T07:51:12.994Z,3.37
2023-11-14T07:54:01.116Z,3.20
2023-11-14T07:56:49.412Z,3.40
2023-11-14T07:59:37.454Z,3.57
2023-11-14T08:02:26.968Z,3.73
2023-11-14T08:05:15.760Z,3.17
2023-11-14T08:08:03.908Z,3.20
2023-11-14T08:10:52.052Z,2.97
2023-11-14T08:13:40.626Z,3.07
2023-11-14T08:16:28.831Z,3.07
2023-11-14T08:19:18.319Z,3.43
2023-11-14T08:22:07.743Z,3.40
2023-11-14T08:24:55.905Z,2.70
2023-11-14T08:27:44.363Z,3.47
2023-11-14T08:30:32.512Z,3.07
2023-11-14T08:33:20.989Z,3.50
2023-11-14T08:36:11.348Z,3.53
2023-11-14T08:38:59.564Z,3.43
2023-11-14T08:41:47.598Z,4.47
2023-11-14T08:44:35.705Z,4.03
2023-11-14T08:47:24.004Z,4.27
2023-11-14T08:50:14.071Z,4.33
2023-11-14T08:53:04.099Z,4.03
2023-11-14T08:55:53.516Z,4.10
2023-11-14T08:58:41.753Z,3.50
2023-11-14T09:01:29.947Z,3.30
2023-11-14T09:04:19.238Z,3.70
2023-11-14T09:07:07.488Z,3.67
2023-11-14T09:09:57.267Z,3.10
2023-11-14T09:12:45.504Z,4.03
2023-11-14T09:15:33.589Z,4.03
2023-11-14T09:18:21.775Z,3.17
2023-11-14T09:21:10.028Z,3.60
2023-11-14T09:23:58.250Z,3.37
2023-11-14T09:26:47.728Z,3.80
2023-11-14T09:29:35.835Z,3.93
2023-11-14T09:32:24.897Z,3.37
2023-11-14T09:35:13.985Z,3.20
2023-11-14T09:38:02.384Z,4.00
2023-11-14T09:40:50.637Z,3.80
2023-11-14T09:43:41.772Z,3.83
2023-11-14T09:46:33.643Z,3.67
2023-11-14T09:49:21.897Z,3.67
2023-11-14T09:52:10.477Z,3.23
2023-11-14T09:54:59.783Z,3.57
2023-11-14T09:57:49.902Z,3.10
2023-11-14T10:00:39.772Z,3.60
2023-11-14T10:03:28.626Z,3.33
2023-11-14T10:06:16.886Z,3.10
2023-11-14T10:09:07.230Z,3.23
2023-11-14T10:12:12.774Z,3.00
2023-11-14T10:15:04.968Z,3.27
2023-11-14T10:17:54.550Z,2.93
2023-11-14T10:20:48.075Z,2.50
2023-11-14T10:23:40.626Z,3.03
2023-11-14T10:26:29.569Z,3.00
2023-11-14T10:29:19.862Z,3.13
2023-11-14T10:32:15.950Z,3.07
2023-11-14T10:35:18.802Z,2.80
2023-11-14T10:38:21.854Z,2.27
2023-11-14T10:41:11.228Z,3.00
2023-11-14T10:44:09.382Z,3.03
2023-11-14T10:47:00.039Z,3.10
2023-11-14T10:49:48.415Z,2.90
2023-11-14T10:52:38.881Z,2.47
2023-11-14T10:55:27.771Z,2.57
2023-11-14T10:58:16.124Z,2.20
2023-11-14T11:01:06.420Z,2.73
2023-11-14T11:03:56.368Z,2.00
2023-11-14T11:06:46.213Z,2.70
2023-11-14T11:09:35.701Z,2.60
2023-11-14T11:12:28.007Z,2.57
2023-11-14T11:15:16.601Z,2.50
2023-11-14T11:18:04.899Z,2.80
2023-11-14T11:20:53.221Z,2.13
2023-11-14T11:24:04.812Z,1.70
2023-11-14T11:27:13.479Z,2.23
2023-11-14T11:30:09.297Z,1.93
2023-11-14T11:32:59.631Z,2.07
2023-11-14T11:35:47.790Z,1.80
2023-11-14T11:38:35.826Z,1.70
2023-11-14T11:41:24.873Z,2.67
2023-11-14T11:44:14.788Z,2.03
2023-11-14T11:47:02.953Z,2.47
2023-11-14T11:49:51.160Z,2.43
2023-11-14T11:52:40.498Z,3.07
2023-11-14T11:55:29.015Z,2.17
2023-11-14T11:58:18.136Z,2.70
2023-11-14T12:01:10.854Z,2.17
2023-11-14T12:03:59.908Z,2.43
2023-11-14T12:06:48.530Z,2.13
2023-11-14T12:09:37.731Z,1.80
2023-11-14T12:12:25.848Z,2.40
2023-11-14T12:15:17.836Z,2.47
2023-11-14T12:18:07.556Z,2.23
2023-11-14T12:20:55.677Z,2.60
2023-11-14T12:23:43.959Z,2.33
2023-11-14T12:26:33.413Z,2.30
2023-11-14T12:29:21.536Z,1.97
2023-11-14T12:32:14.236Z,2.20
2023-11-14T12:35:04.582Z,2.20
2023-11-14T12:38:02.196Z,2.53
2023-11-14T12:40:53.372Z,2.27
2023-11-14T12:43:41.682Z,2.10
2023-11-14T12:46:31.270Z,2.23
2023-11-14T12:49:20.601Z,2.40
2023-11-14T12:52:12.322Z,2.13
2023-11-14T12:55:01.862Z,2.20
2023-11-14T12:57:50.507Z,1.90
2023-11-14T13:00:38.616Z,1.50
2023-11-14T13:03:26.669Z,1.33
2023-11-14T13:06:14.877Z,1.40
2023-11-14T13:09:05.219Z,1.30
2023-11-14T13:11:53.191Z,1.03
2023-11-14T13:14:42.174Z,1.30
2023-11-14T13:17:30.241Z,1.40
2023-11-14T13:20:18.444Z,1.97
2023-11-14T13:23:07.079Z,1.50
2023-11-14T13:25:56.622Z,1.00
2023-11-14T13:28:44.734Z,1.70
2023-11-14T13:31:32.782Z,2.20
2023-11-14T13:34:22.040Z,1.63
2023-11-14T13:37:22.844Z,1.70
2023-11-14T13:40:12.664Z,1.37
2023-11-14T13:43:02.043Z,1.70
2023-11-14T13:45:51.026Z,2.17
2023-11-14T13:48:39.108Z,2.30
2023-11-14T13:51:27.936Z,4.13
2023-11-14T13:54:18.172Z,7.43
2023-11-14T13:57:07.689Z,3.40
2023-11-14T13:59:57.408Z,1.67
2023-11-14T14:02:45.701Z,1.57
2023-11-14T14:05:33.951Z,1.70
2023-11-14T14:08:23.004Z,1.33
2023-11-14T14:11:12.243Z,1.33
2023-11-14T14:14:00.473Z,1.47
2023-11-14T14:16:50.800Z,1.70
2023-11-14T14:19:39.079Z,1.47
2023-11-14T14:22:27.325Z,1.30
2023-11-14T14:25:16.325Z,1.80
2023-11-14T14:28:04.457Z,1.40
2023-11-14T14:30:54.291Z,1.77
2023-11-14T14:33:43.789Z,1.50
2023-11-14T14:36:32.062Z,1.00
2023-11-14T14:39:20.230Z,1.53
2023-11-14T14:42:08.533Z,1.20
2023-11-14T14:44:56.644Z,1.10
2023-11-14T14:47:46.561Z,0.90
2023-11-14T14:50:36.655Z,1.03
2023-11-14T14:53:25.294Z,1.60
2023-11-14T14:56:13.812Z,1.23
2023-11-14T14:59:05.183Z,1.00
2023-11-14T15:01:57.560Z,1.07
2023-11-14T15:04:45.678Z,1.13
2023-11-14T15:07:35.349Z,1.67
2023-11-14T15:10:23.427Z,1.70
2023-11-14T15:13:11.905Z,1.23
2023-11-14T15:16:02.400Z,1.10
2023-11-14T15:18:51.615Z,1.40
2023-11-14T15:21:40.587Z,1.40
2023-11-14T15:24:31.687Z,1.20
2023-11-14T15:27:19.814Z,1.80
2023-11-14T15:30:09.532Z,1.40
2023-11-14T15:32:58.943Z,1.00
2023-11-14T15:35:47.264Z,1.13
2023-11-14T15:38:35.605Z,1.10
2023-11-14T15:41:25.251Z,0.90
2023-11-14T15:44:15.349Z,0.97
2023-11-14T15:47:04.763Z,1.17
2023-11-14T15:49:52.805Z,1.40
2023-11-14T15:52:40.914Z,1.30
2023-11-14T15:55:29.387Z,1.50
2023-11-14T15:58:18.831Z,1.30
2023-11-14T16:01:06.885Z,1.50
2023-11-14T16:03:55.017Z,1.90
2023-11-14T16:06:43.416Z,1.53
2023-11-14T16:09:31.434Z,1.70
2023-11-14T16:12:19.461Z,2.03
2023-11-14T16:15:10.410Z,1.97
2023-11-14T16:17:58.585Z,2.13
2023-11-14T16:20:47.257Z,1.97
2023-11-14T16:23:36.230Z,1.80
2023-11-14T16:26:24.447Z,2.03
2023-11-14T16:29:12.607Z,2.10
2023-11-14T16:32:02.242Z,2.43
2023-11-14T16:34:50.735Z,2.33
2023-11-14T16:37:38.785Z,2.10
2023-11-14T16:40:26.881Z,2.37
2023-11-14T16:43:15.234Z,2.40
2023-11-14T16:46:03.350Z,2.50
2023-11-14T16:48:52.855Z,2.60
2023-11-14T16:51:40.934Z,2.47
2023-11-14T16:54:28.997Z,2.90
2023-11-14T16:57:17.124Z,2.53
2023-11-14T17:00:08.533Z,2.40
2023-11-14T17:02:56.780Z,2.50
2023-11-14T17:05:46.275Z,2.60
2023-11-14T17:08:34.413Z,2.20
2023-11-14T17:11:22.769Z,2.40
2023-11-14T17:14:11.158Z,2.77
2023-11-14T17:16:59.317Z,2.70
2023-11-14T17:19:47.661Z,2.60
2023-11-14T17:22:37.467Z,3.10
2023-11-14T17:25:26.453Z,3.20
2023-11-14T17:28:15.298Z,2.27
2023-11-14T17:31:03.625Z,2.37
2023-11-14T17:33:53.114Z,2.07
2023-11-14T17:36:41.385Z,2.93
2023-11-14T17:39:32.060Z,2.40
2023-11-14T17:42:20.111Z,2.63
2023-11-14T17:45:10.777Z,2.90
2023-11-14T17:47:59.500Z,3.30
2023-11-14T17:50:47.816Z,2.97
2023-11-14T17:53:36.103Z,3.37
2023-11-14T17:56:25.611Z,3.00
2023-11-14T17:59:13.946Z,2.30
2023-11-14T18:02:02.251Z,5.00
2023-11-14T18:04:50.906Z,4.27
2023-11-14T18:07:39.344Z,2.93
2023-11-14T18:10:27.396Z,3.27
2023-11-14T18:13:18.003Z,2.43
2023-11-14T18:16:10.128Z,1.50
2023-11-14T18:18:59.166Z,2.93
2023-11-14T18:21:48.980Z,1.40
2023-11-14T18:24:37.016Z,2.03
2023-11-14T18:27:25.114Z,1.23
2023-11-14T18:30:15.029Z,1.47
2023-11-14T18:33:03.545Z,1.70
2023-11-14T18:35:54.774Z,1.23
2023-11-14T18:38:44.072Z,1.33
2023-11-14T18:41:32.581Z,1.10
2023-11-14T18:44:20.663Z,0.80
2023-11-14T18:47:10.724Z,1.10
2023-11-14T18:49:58.948Z,1.30
2023-11-14T18:52:47.013Z,0.83
2023-11-14T18:55:35.126Z,1.43
2023-11-14T18:58:23.782Z,1.17
2023-11-14T19:01:12.976Z,1.77
2023-11-14T19:04:02.466Z,1.70
2023-11-14T19:06:50.595Z,1.10
2023-11-14T19:09:38.647Z,1.00
2023-11-14T19:12:26.727Z,0.90
2023-11-14T19:15:14.703Z,0.90
2023-11-14T19:18:02.865Z,0.83
2023-11-14T19:21:20.553Z,1.10
2023-11-14T19:24:00.707Z,0.90
2023-11-14T19:26:48.918Z,1.10
2023-11-14T19:29:37.016Z,1.00
2023-11-14T19:32:25.378Z,1.00
2023-11-14T19:35:13.905Z,1.17
2023-11-14T19:38:03.740Z,1.27
2023-11-14T19:40:51.760Z,0.67
2023-11-14T19:43:39.942Z,0.90
2023-11-14T19:46:28.115Z,0.83
2023-11-14T19:49:16.526Z,1.10
2023-11-14T19:52:05.533Z,0.67
2023-11-14T19:54:55.178Z,0.90
2023-11-14T19:57:43.439Z,0.93
2023-11-14T20:00:34.596Z,1.30
2023-11-14T20:03:23.158Z,0.87
2023-11-14T20:06:11.549Z,0.90
2023-11-14T20:09:00.909Z,1.07
2023-11-14T20:11:50.560Z,0.80
2023-11-14T20:14:38.824Z,0.67
2023-11-14T20:17:27.080Z,0.90
2023-11-14T20:20:15.589Z,0.80
2023-11-14T20:23:05.440Z,0.73
2023-11-14T20:25:53.679Z,0.70
2023-11-14T20:28:43.207Z,0.80
2023-11-14T20:31:31.574Z,0.83
2023-11-14T20:34:20.356Z,0.90
2023-11-14T20:37:08.507Z,0.90
2023-11-14T20:39:57.134Z,0.70
2023-11-14T20:42:46.110Z,0.70
2023-11-14T20:45:35.561Z,0.57
2023-11-14T20:48:24.273Z,0.50
2023-11-14T20:51:21.796Z,0.70
2023-11-14T20:54:15.354Z,0.73
2023-11-14T20:57:03.671Z,0.73
2023-11-14T20:59:52.460Z,0.80
2023-11-14T21:02:42.613Z,0.90
2023-11-14T21:05:31.067Z,0.80
2023-11-14T21:08:21.260Z,0.80
2023-11-14T21:11:09.479Z,0.50
2023-11-14T21:13:57.754Z,0.60
2023-11-14T21:16:46.172Z,0.47
2023-11-14T21:19:35.640Z,0.50
2023-11-14T21:22:23.901Z,0.50
2023-11-14T21:25:12.005Z,0.60
2023-11-14T21:28:00.266Z,0.80
2023-11-14T21:30:53.742Z,0.40
2023-11-14T21:33:45.091Z,0.40
2023-11-14T21:36:34.855Z,0.30
2023-11-14T21:39:22.929Z,0.40
2023-11-14T21:42:11.220Z,0.20
2023-11-14T21:44:59.341Z,0.30
2023-11-14T21:47:47.562Z,0.20
2023-11-14T21:50:35.717Z,0.20
2023-11-14T21:53:25.221Z,0.20
2023-11-14T21:56:14.521Z,0.10
2023-11-14T21:59:02.621Z,0.20
2023-11-14T22:01:51.334Z,0.10
2023-11-14T22:04:39.409Z,0.00
2023-11-14T22:07:27.543Z,0.10
2023-11-14T22:10:17.298Z,0.10
2023-11-14T22:13:06.822Z,0.20
2023-11-14T22:15:54.968Z,0.13
2023-11-14T22:18:43.218Z,0.20
2023-11-14T22:21:31.374Z,0.30
2023-11-14T22:24:19.419Z,0.20
2023-11-14T22:27:09.212Z,0.20
2023-11-14T22:29:58.448Z,0.20
2023-11-14T22:32:46.929Z,0.30
2023-11-14T22:35:35.127Z,0.20
2023-11-14T22:38:23.307Z,0.47
2023-11-14T22:41:14.974Z,0.20
2023-11-14T22:44:04.612Z,0.20
2023-11-14T22:46:53.028Z,0.20
2023-11-14T22:49:41.945Z,0.30
2023-11-14T22:52:30.080Z,0.20
2023-11-14T22:55:18.181Z,0.20
2023-11-14T22:58:06.263Z,0.30
2023-11-14T23:00:56.898Z,0.20
2023-11-14T23:03:46.086Z,0.20
2023-11-14T23:06:35.984Z,0.30
2023-11-14T23:09:24.803Z,0.20
2023-11-14T23:12:13.465Z,0.27
2023-11-14T23:15:01.587Z,0.30
2023-11-14T23:17:51.049Z,0.27
2023-11-14T23:20:40.627Z,0.37
2023-11-14T23:23:29.702Z,0.27
2023-11-14T23:26:18.930Z,0.30
2023-11-14T23:29:07.119Z,0.20
2023-11-14T23:31:57.110Z,0.40
2023-11-14T23:34:46.603Z,0.53
2023-11-14T23:37:34.634Z,0.20
2023-11-14T23:40:24.823Z,0.30
2023-11-14T23:43:13.620Z,0.40
2023-11-14T23:46:01.724Z,0.30
2023-11-14T23:48:49.830Z,0.77
2023-11-14T23:51:39.775Z,0.30
2023-11-14T23:54:30.092Z,0.30
2023-11-14T23:57:18.204Z,0.20
